sensor_id;sensor_type;location;lat;lon;timestamp;pressure;altitude;pressure_sealevel;temperature;humidity
36234;BME280;43467;50.890;5.982;2023-07-13T00:00:17;100129.78;;;18.82;53.54
36234;BME280;43467;50.890;5.982;2023-07-13T00:02:43;100134.47;;;19.01;53.06
36234;BME280;43467;50.890;5.982;2023-07-13T00:05:09;100127.66;;;18.97;53.05
36234;BME280;43467;50.890;5.982;2023-07-13T00:07:35;100091.66;;;18.56;53.95
36234;BME280;43467;50.890;5.982;2023-07-13T00:10:02;100138.06;;;18.79;54.13
36234;BME280;43467;50.890;5.982;2023-07-13T00:12:34;100065.81;;;18.33;54.63
36234;BME280;43467;50.890;5.982;2023-07-13T00:15:03;100148.19;;;18.76;54.16
36234;BME280;43467;50.890;5.982;2023-07-13T00:17:29;100136.38;;;18.67;54.57
36234;BME280;43467;50.890;5.982;2023-07-13T00:19:56;100137.38;;;18.66;54.76
36234;BME280;43467;50.890;5.982;2023-07-13T00:22:23;100131.97;;;18.55;55.22
36234;BME280;43467;50.890;5.982;2023-07-13T00:24:51;100140.25;;;18.63;54.94
36234;BME280;43467;50.890;5.982;2023-07-13T00:27:17;100130.41;;;18.64;54.74
36234;BME280;43467;50.890;5.982;2023-07-13T00:29:44;100149.28;;;18.73;55.14
36234;BME280;43467;50.890;5.982;2023-07-13T00:32:10;100140.25;;;18.63;55.45
36234;BME280;43467;50.890;5.982;2023-07-13T00:34:37;100148.06;;;18.77;54.68
36234;BME280;43467;50.890;5.982;2023-07-13T00:37:04;100150.00;;;18.75;54.95
36234;BME280;43467;50.890;5.982;2023-07-13T00:39:32;100144.19;;;18.70;55.31
36234;BME280;43467;50.890;5.982;2023-07-13T00:41:58;100144.91;;;18.72;55.13
36234;BME280;43467;50.890;5.982;2023-07-13T00:44:24;100107.38;;;18.50;54.81
36234;BME280;43467;50.890;5.982;2023-07-13T00:46:50;100132.59;;;18.70;55.29
36234;BME280;43467;50.890;5.982;2023-07-13T00:49:19;100128.34;;;18.56;55.38
36234;BME280;43467;50.890;5.982;2023-07-13T00:51:50;100138.34;;;18.65;55.36
36234;BME280;43467;50.890;5.982;2023-07-13T00:54:32;100124.94;;;18.54;55.64
36234;BME280;43467;50.890;5.982;2023-07-13T00:57:02;100136.38;;;18.67;55.05
36234;BME280;43467;50.890;5.982;2023-07-13T00:59:29;100111.88;;;18.49;55.19
36234;BME280;43467;50.890;5.982;2023-07-13T01:01:56;100141.63;;;18.58;56.09
36234;BME280;43467;50.890;5.982;2023-07-13T01:04:24;100135.16;;;18.60;55.44
36234;BME280;43467;50.890;5.982;2023-07-13T01:06:50;100132.97;;;18.54;55.59
36234;BME280;43467;50.890;5.982;2023-07-13T01:09:16;100125.63;;;18.45;55.90
36234;BME280;43467;50.890;5.982;2023-07-13T01:11:43;100132.31;;;18.39;55.99
36234;BME280;43467;50.890;5.982;2023-07-13T01:14:10;100132.84;;;18.33;56.05
36234;BME280;43467;50.890;5.982;2023-07-13T01:16:37;100097.25;;;18.09;55.90
36234;BME280;43467;50.890;5.982;2023-07-13T01:21:50;100130.25;;;18.32;56.10
36234;BME280;43467;50.890;5.982;2023-07-13T01:24:15;100124.66;;;18.24;56.23
36234;BME280;43467;50.890;5.982;2023-07-13T01:26:41;100137.56;;;18.19;56.24
36234;BME280;43467;50.890;5.982;2023-07-13T01:29:07;100139.38;;;18.18;56.16
36234;BME280;43467;50.890;5.982;2023-07-13T01:31:33;100135.13;;;18.16;56.71
36234;BME280;43467;50.890;5.982;2023-07-13T01:33:59;100121.38;;;18.20;56.85
36234;BME280;43467;50.890;5.982;2023-07-13T01:36:25;100132.69;;;18.13;57.20
36234;BME280;43467;50.890;5.982;2023-07-13T01:38:50;100128.75;;;18.05;57.15
36234;BME280;43467;50.890;5.982;2023-07-13T01:41:16;100126.59;;;18.10;57.21
36234;BME280;43467;50.890;5.982;2023-07-13T01:43:42;100131.94;;;18.10;57.44
36234;BME280;43467;50.890;5.982;2023-07-13T01:46:07;100107.81;;;17.99;57.31
36234;BME280;43467;50.890;5.982;2023-07-13T01:48:33;100122.78;;;18.02;57.56
36234;BME280;43467;50.890;5.982;2023-07-13T01:50:58;100088.06;;;17.89;56.75
36234;BME280;43467;50.890;5.982;2023-07-13T01:53:24;100131.59;;;18.15;57.18
36234;BME280;43467;50.890;5.982;2023-07-13T01:55:50;100132.81;;;18.22;56.78
36234;BME280;43467;50.890;5.982;2023-07-13T01:58:16;100129.88;;;18.14;57.09
36234;BME280;43467;50.890;5.982;2023-07-13T02:00:41;100135.72;;;18.19;56.88
36234;BME280;43467;50.890;5.982;2023-07-13T02:03:07;100136.84;;;18.17;56.56
36234;BME280;43467;50.890;5.982;2023-07-13T02:05:33;100110.75;;;17.96;56.60
36234;BME280;43467;50.890;5.982;2023-07-13T02:07:58;100112.31;;;17.99;56.35
36234;BME280;43467;50.890;5.982;2023-07-13T02:10:24;100113.91;;;17.90;56.66
36234;BME280;43467;50.890;5.982;2023-07-13T02:12:51;100144.22;;;18.02;56.88
36234;BME280;43467;50.890;5.982;2023-07-13T02:15:17;100151.66;;;17.98;56.78
36234;BME280;43467;50.890;5.982;2023-07-13T02:17:42;100150.19;;;18.05;56.57
36234;BME280;43467;50.890;5.982;2023-07-13T02:20:08;100149.47;;;18.03;56.58
36234;BME280;43467;50.890;5.982;2023-07-13T02:22:35;100145.34;;;17.99;56.79
36234;BME280;43467;50.890;5.982;2023-07-13T02:25:01;100138.34;;;17.86;57.61
36234;BME280;43467;50.890;5.982;2023-07-13T02:27:27;100140.56;;;17.81;57.36
36234;BME280;43467;50.890;5.982;2023-07-13T02:29:53;100140.94;;;17.87;57.28
36234;BME280;43467;50.890;5.982;2023-07-13T02:32:19;100153.72;;;17.84;57.62
36234;BME280;43467;50.890;5.982;2023-07-13T02:34:45;100135.91;;;17.72;57.44
36234;BME280;43467;50.890;5.982;2023-07-13T02:37:11;100123.31;;;17.61;57.95
36234;BME280;43467;50.890;5.982;2023-07-13T02:39:37;100136.75;;;17.72;58.07
36234;BME280;43467;50.890;5.982;2023-07-13T02:42:03;100154.75;;;17.70;59.04
36234;BME280;43467;50.890;5.982;2023-07-13T02:44:29;100151.22;;;17.70;58.90
36234;BME280;43467;50.890;5.982;2023-07-13T02:46:54;100157.94;;;17.75;58.52
36234;BME280;43467;50.890;5.982;2023-07-13T02:49:20;100151.34;;;17.68;58.91
36234;BME280;43467;50.890;5.982;2023-07-13T02:51:46;100153.69;;;17.73;58.68
36234;BME280;43467;50.890;5.982;2023-07-13T02:54:11;100159.50;;;17.78;58.53
36234;BME280;43467;50.890;5.982;2023-07-13T02:56:39;100137.44;;;17.63;58.90
36234;BME280;43467;50.890;5.982;2023-07-13T02:59:05;100155.78;;;17.56;59.28
36234;BME280;43467;50.890;5.982;2023-07-13T03:01:31;100165.22;;;17.49;59.79
36234;BME280;43467;50.890;5.982;2023-07-13T03:04:00;100151.63;;;17.52;59.79
36234;BME280;43467;50.890;5.982;2023-07-13T03:06:26;100165.53;;;17.57;60.02
36234;BME280;43467;50.890;5.982;2023-07-13T03:08:55;100145.88;;;17.46;59.54
36234;BME280;43467;50.890;5.982;2023-07-13T03:11:21;100143.78;;;17.38;60.10
36234;BME280;43467;50.890;5.982;2023-07-13T03:13:47;100163.88;;;17.44;60.35
36234;BME280;43467;50.890;5.982;2023-07-13T03:16:15;100165.47;;;17.23;60.89
36234;BME280;43467;50.890;5.982;2023-07-13T03:18:42;100132.81;;;17.06;61.14
36234;BME280;43467;50.890;5.982;2023-07-13T03:21:08;100168.69;;;17.28;61.35
36234;BME280;43467;50.890;5.982;2023-07-13T03:23:33;100169.09;;;17.45;60.63
36234;BME280;43467;50.890;5.982;2023-07-13T03:26:06;100174.59;;;17.44;61.20
36234;BME280;43467;50.890;5.982;2023-07-13T03:28:32;100176.97;;;17.36;61.53
36234;BME280;43467;50.890;5.982;2023-07-13T03:31:07;100163.81;;;17.33;62.07
36234;BME280;43467;50.890;5.982;2023-07-13T03:33:33;100170.78;;;17.35;61.69
36234;BME280;43467;50.890;5.982;2023-07-13T03:35:59;100167.56;;;17.30;62.21
36234;BME280;43467;50.890;5.982;2023-07-13T03:38:25;100139.25;;;17.28;61.81
36234;BME280;43467;50.890;5.982;2023-07-13T03:40:52;100168.59;;;17.40;61.75
36234;BME280;43467;50.890;5.982;2023-07-13T03:43:18;100166.72;;;17.30;62.50
36234;BME280;43467;50.890;5.982;2023-07-13T03:45:43;100172.66;;;17.22;63.25
36234;BME280;43467;50.890;5.982;2023-07-13T03:48:09;100170.41;;;17.16;63.44
36234;BME280;43467;50.890;5.982;2023-07-13T03:50:35;100175.66;;;17.17;63.55
36234;BME280;43467;50.890;5.982;2023-07-13T03:53:01;100181.81;;;17.07;64.14
36234;BME280;43467;50.890;5.982;2023-07-13T03:55:26;100176.03;;;17.00;64.69
36234;BME280;43467;50.890;5.982;2023-07-13T03:58:28;100192.38;;;17.08;65.15
36234;BME280;43467;50.890;5.982;2023-07-13T04:00:54;100186.34;;;16.94;65.45
36234;BME280;43467;50.890;5.982;2023-07-13T04:03:20;100172.91;;;16.83;65.95
36234;BME280;43467;50.890;5.982;2023-07-13T04:05:46;100186.75;;;16.88;65.94
36234;BME280;43467;50.890;5.982;2023-07-13T04:08:12;100189.66;;;16.85;65.99
36234;BME280;43467;50.890;5.982;2023-07-13T04:10:37;100191.69;;;16.94;66.51
36234;BME280;43467;50.890;5.982;2023-07-13T04:13:04;100189.00;;;16.94;66.32
36234;BME280;43467;50.890;5.982;2023-07-13T04:15:31;100153.03;;;16.74;66.24
36234;BME280;43467;50.890;5.982;2023-07-13T04:17:57;100179.59;;;16.88;66.65
36234;BME280;43467;50.890;5.982;2023-07-13T04:20:24;100196.50;;;16.89;66.73
36234;BME280;43467;50.890;5.982;2023-07-13T04:22:50;100193.50;;;16.93;66.40
36234;BME280;43467;50.890;5.982;2023-07-13T04:25:16;100209.84;;;17.01;66.80
36234;BME280;43467;50.890;5.982;2023-07-13T04:27:42;100155.59;;;16.63;67.42
36234;BME280;43467;50.890;5.982;2023-07-13T04:30:08;100179.72;;;16.87;67.14
36234;BME280;43467;50.890;5.982;2023-07-13T04:32:34;100190.09;;;16.91;67.00
36234;BME280;43467;50.890;5.982;2023-07-13T04:34:59;100203.88;;;16.98;67.43
36234;BME280;43467;50.890;5.982;2023-07-13T04:37:26;100214.00;;;17.05;67.42
36234;BME280;43467;50.890;5.982;2023-07-13T04:39:52;100217.66;;;17.04;67.45
36234;BME280;43467;50.890;5.982;2023-07-13T04:42:18;100183.06;;;16.78;67.78
36234;BME280;43467;50.890;5.982;2023-07-13T04:44:50;100223.31;;;17.00;68.13
36234;BME280;43467;50.890;5.982;2023-07-13T04:47:17;100188.72;;;16.86;67.85
36234;BME280;43467;50.890;5.982;2023-07-13T04:49:44;100223.53;;;17.09;67.89
36234;BME280;43467;50.890;5.982;2023-07-13T04:52:10;100209.31;;;16.96;68.16
36234;BME280;43467;50.890;5.982;2023-07-13T04:54:38;100220.00;;;17.09;67.97
36234;BME280;43467;50.890;5.982;2023-07-13T04:57:07;100229.72;;;17.10;67.88
36234;BME280;43467;50.890;5.982;2023-07-13T04:59:34;100226.81;;;17.13;68.09
36234;BME280;43467;50.890;5.982;2023-07-13T05:02:00;100204.28;;;17.04;68.23
36234;BME280;43467;50.890;5.982;2023-07-13T05:04:27;100216.97;;;17.13;67.89
36234;BME280;43467;50.890;5.982;2023-07-13T05:06:53;100230.88;;;17.18;68.07
36234;BME280;43467;50.890;5.982;2023-07-13T05:09:19;100197.03;;;16.94;68.26
36234;BME280;43467;50.890;5.982;2023-07-13T05:11:45;100226.97;;;17.11;67.67
36234;BME280;43467;50.890;5.982;2023-07-13T05:14:11;100230.72;;;17.33;67.50
36234;BME280;43467;50.890;5.982;2023-07-13T05:16:37;100234.44;;;17.43;67.36
36234;BME280;43467;50.890;5.982;2023-07-13T05:19:02;100244.38;;;17.41;67.60
36234;BME280;43467;50.890;5.982;2023-07-13T05:21:29;100243.03;;;17.35;67.86
36234;BME280;43467;50.890;5.982;2023-07-13T05:23:55;100225.81;;;17.27;67.87
36234;BME280;43467;50.890;5.982;2023-07-13T05:26:21;100230.72;;;17.33;68.03
36234;BME280;43467;50.890;5.982;2023-07-13T05:28:47;100245.72;;;17.35;68.10
36234;BME280;43467;50.890;5.982;2023-07-13T05:31:13;100231.25;;;17.38;67.73
36234;BME280;43467;50.890;5.982;2023-07-13T05:33:39;100241.38;;;17.45;67.44
36234;BME280;43467;50.890;5.982;2023-07-13T05:36:04;100243.19;;;17.45;67.88
36234;BME280;43467;50.890;5.982;2023-07-13T05:38:33;100218.22;;;17.20;68.43
36234;BME280;43467;50.890;5.982;2023-07-13T05:40:59;100252.34;;;17.30;68.94
36234;BME280;43467;50.890;5.982;2023-07-13T05:43:25;100257.38;;;17.34;68.86
36234;BME280;43467;50.890;5.982;2023-07-13T05:45:53;100259.91;;;17.48;68.25
36234;BME280;43467;50.890;5.982;2023-07-13T05:48:19;100264.75;;;17.43;68.85
36234;BME280;43467;50.890;5.982;2023-07-13T05:50:44;100257.78;;;17.41;68.96
36234;BME280;43467;50.890;5.982;2023-07-13T05:53:10;100242.66;;;17.16;68.90
36234;BME280;43467;50.890;5.982;2023-07-13T05:55:35;100225.25;;;17.10;69.67
36234;BME280;43467;50.890;5.982;2023-07-13T05:58:01;100251.50;;;17.29;69.31
36234;BME280;43467;50.890;5.982;2023-07-13T06:00:27;100259.47;;;17.18;70.23
36234;BME280;43467;50.890;5.982;2023-07-13T06:02:52;100269.19;;;17.32;70.16
36234;BME280;43467;50.890;5.982;2023-07-13T06:05:18;100274.16;;;17.36;69.77
36234;BME280;43467;50.890;5.982;2023-07-13T06:07:43;100271.00;;;17.31;70.29
36234;BME280;43467;50.890;5.982;2023-07-13T06:10:10;100252.06;;;17.22;70.63
36234;BME280;43467;50.890;5.982;2023-07-13T06:12:36;100253.78;;;17.23;70.75
36234;BME280;43467;50.890;5.982;2023-07-13T06:15:01;100235.31;;;17.07;70.86
36234;BME280;43467;50.890;5.982;2023-07-13T06:17:27;100280.16;;;17.40;70.82
36234;BME280;43467;50.890;5.982;2023-07-13T06:19:52;100274.59;;;17.43;71.00
36234;BME280;43467;50.890;5.982;2023-07-13T06:22:18;100269.94;;;17.21;71.78
36234;BME280;43467;50.890;5.982;2023-07-13T06:24:43;100290.66;;;17.43;71.26
36234;BME280;43467;50.890;5.982;2023-07-13T06:27:09;100285.69;;;17.49;71.17
36234;BME280;43467;50.890;5.982;2023-07-13T06:29:34;100295.09;;;17.55;71.34
36234;BME280;43467;50.890;5.982;2023-07-13T06:32:00;100295.31;;;17.64;71.17
36234;BME280;43467;50.890;5.982;2023-07-13T06:34:25;100301.31;;;17.68;71.22
36234;BME280;43467;50.890;5.982;2023-07-13T06:36:51;100274.09;;;17.61;71.09
36234;BME280;43467;50.890;5.982;2023-07-13T06:39:17;100299.88;;;17.75;71.16
36234;BME280;43467;50.890;5.982;2023-07-13T06:41:42;100299.28;;;17.59;72.24
36234;BME280;43467;50.890;5.982;2023-07-13T06:44:08;100296.72;;;17.57;72.56
36234;BME280;43467;50.890;5.982;2023-07-13T06:46:33;100294.16;;;17.56;72.58
36234;BME280;43467;50.890;5.982;2023-07-13T06:48:59;100285.34;;;17.54;72.66
36234;BME280;43467;50.890;5.982;2023-07-13T06:51:25;100317.81;;;17.62;72.86
36234;BME280;43467;50.890;5.982;2023-07-13T06:53:51;100314.16;;;17.63;72.83
36234;BME280;43467;50.890;5.982;2023-07-13T06:56:17;100280.13;;;17.52;72.61
36234;BME280;43467;50.890;5.982;2023-07-13T06:58:43;100316.63;;;17.66;72.79
36234;BME280;43467;50.890;5.982;2023-07-13T07:01:08;100306.53;;;17.70;72.42
36234;BME280;43467;50.890;5.982;2023-07-13T07:03:34;100309.28;;;17.81;72.31
36234;BME280;43467;50.890;5.982;2023-07-13T07:06:22;100317.38;;;17.92;72.13
36234;BME280;43467;50.890;5.982;2023-07-13T07:08:49;100313.31;;;17.86;72.45
36234;BME280;43467;50.890;5.982;2023-07-13T07:11:18;100313.25;;;17.75;72.59
36234;BME280;43467;50.890;5.982;2023-07-13T07:13:44;100315.13;;;17.86;72.24
36234;BME280;43467;50.890;5.982;2023-07-13T07:16:10;100317.94;;;17.84;72.57
36234;BME280;43467;50.890;5.982;2023-07-13T07:18:36;100325.78;;;17.98;72.32
36234;BME280;43467;50.890;5.982;2023-07-13T07:21:19;100329.72;;;18.05;72.26
36234;BME280;43467;50.890;5.982;2023-07-13T07:23:45;100331.44;;;18.06;71.85
36234;BME280;43467;50.890;5.982;2023-07-13T07:26:11;100327.56;;;18.10;71.36
36234;BME280;43467;50.890;5.982;2023-07-13T07:28:37;100331.59;;;18.16;71.73
36234;BME280;43467;50.890;5.982;2023-07-13T07:31:02;100333.19;;;18.19;71.14
36234;BME280;43467;50.890;5.982;2023-07-13T07:33:28;100332.69;;;18.14;71.01
36234;BME280;43467;50.890;5.982;2023-07-13T07:35:54;100339.75;;;18.15;70.80
36234;BME280;43467;50.890;5.982;2023-07-13T07:38:19;100330.22;;;18.10;70.68
36234;BME280;43467;50.890;5.982;2023-07-13T07:40:45;100334.28;;;18.16;70.67
36234;BME280;43467;50.890;5.982;2023-07-13T07:43:12;100334.53;;;18.13;70.54
36234;BME280;43467;50.890;5.982;2023-07-13T07:45:39;100341.97;;;18.21;70.50
36234;BME280;43467;50.890;5.982;2023-07-13T07:48:05;100329.44;;;18.21;70.29
36234;BME280;43467;50.890;5.982;2023-07-13T07:50:32;100326.41;;;18.26;69.97
36234;BME280;43467;50.890;5.982;2023-07-13T07:52:57;100338.81;;;18.27;69.93
36234;BME280;43467;50.890;5.982;2023-07-13T07:55:24;100346.25;;;18.23;69.90
36234;BME280;43467;50.890;5.982;2023-07-13T07:57:52;100348.94;;;18.23;70.23
36234;BME280;43467;50.890;5.982;2023-07-13T08:00:18;100344.69;;;18.32;69.62
36234;BME280;43467;50.890;5.982;2023-07-13T08:02:45;100346.28;;;18.34;69.28
36234;BME280;43467;50.890;5.982;2023-07-13T08:05:11;100354.22;;;18.36;68.98
36234;BME280;43467;50.890;5.982;2023-07-13T08:07:38;100329.09;;;18.26;68.90
36234;BME280;43467;50.890;5.982;2023-07-13T08:10:05;100338.41;;;18.44;68.90
36234;BME280;43467;50.890;5.982;2023-07-13T08:12:38;100348.88;;;18.47;68.78
36234;BME280;43467;50.890;5.982;2023-07-13T08:15:05;100324.75;;;18.47;67.90
36234;BME280;43467;50.890;5.982;2023-07-13T08:17:31;100338.47;;;18.55;68.16
36234;BME280;43467;50.890;5.982;2023-07-13T08:19:57;100340.72;;;18.48;68.28
36234;BME280;43467;50.890;5.982;2023-07-13T08:22:23;100336.28;;;18.60;67.94
36234;BME280;43467;50.890;5.982;2023-07-13T08:24:49;100341.53;;;18.62;68.09
36234;BME280;43467;50.890;5.982;2023-07-13T08:27:21;100354.81;;;18.63;68.38
36234;BME280;43467;50.890;5.982;2023-07-13T08:29:48;100322.94;;;18.47;68.36
36234;BME280;43467;50.890;5.982;2023-07-13T08:32:14;100333.94;;;18.55;68.29
36234;BME280;43467;50.890;5.982;2023-07-13T08:34:40;100338.00;;;18.61;68.36
36234;BME280;43467;50.890;5.982;2023-07-13T08:37:06;100342.00;;;18.67;68.40
36234;BME280;43467;50.890;5.982;2023-07-13T08:39:33;100319.94;;;18.63;68.16
36234;BME280;43467;50.890;5.982;2023-07-13T08:42:07;100322.88;;;18.60;68.48
36234;BME280;43467;50.890;5.982;2023-07-13T08:47:20;100324.50;;;18.74;67.79
36234;BME280;43467;50.890;5.982;2023-07-13T08:49:48;100330.13;;;18.93;67.12
36234;BME280;43467;50.890;5.982;2023-07-13T08:52:28;100314.16;;;19.02;66.49
36234;BME280;43467;50.890;5.982;2023-07-13T08:54:58;100317.69;;;19.14;66.75
36234;BME280;43467;50.890;5.982;2023-07-13T08:57:32;100314.38;;;19.33;66.15
36234;BME280;43467;50.890;5.982;2023-07-13T09:00:07;100323.19;;;19.46;65.41
36234;BME280;43467;50.890;5.982;2023-07-13T09:02:54;100310.34;;;19.49;64.83
36234;BME280;43467;50.890;5.982;2023-07-13T09:05:34;100321.47;;;19.56;64.78
36234;BME280;43467;50.890;5.982;2023-07-13T09:11:32;100313.00;;;19.61;63.77
36234;BME280;43467;50.890;5.982;2023-07-13T09:16:44;100325.44;;;19.73;63.55
36234;BME280;43467;50.890;5.982;2023-07-13T09:19:19;100329.03;;;19.62;63.57
36234;BME280;43467;50.890;5.982;2023-07-13T09:21:48;100308.28;;;19.42;63.54
36234;BME280;43467;50.890;5.982;2023-07-13T09:24:39;100331.22;;;19.57;63.61
36234;BME280;43467;50.890;5.982;2023-07-13T09:27:18;100323.78;;;19.49;63.60
36234;BME280;43467;50.890;5.982;2023-07-13T09:32:37;100307.19;;;19.33;65.02
36234;BME280;43467;50.890;5.982;2023-07-13T09:35:11;100309.66;;;19.47;65.07
36234;BME280;43467;50.890;5.982;2023-07-13T09:37:38;100314.63;;;19.63;64.35
36234;BME280;43467;50.890;5.982;2023-07-13T09:40:14;100315.31;;;19.76;64.38
36234;BME280;43467;50.890;5.982;2023-07-13T09:42:44;100300.88;;;19.77;64.30
36234;BME280;43467;50.890;5.982;2023-07-13T09:45:10;100302.94;;;19.85;63.51
36234;BME280;43467;50.890;5.982;2023-07-13T09:47:40;100325.50;;;20.05;62.04
36234;BME280;43467;50.890;5.982;2023-07-13T09:50:15;100308.34;;;20.17;61.94
36234;BME280;43467;50.890;5.982;2023-07-13T09:52:48;100292.91;;;20.19;61.29
36234;BME280;43467;50.890;5.982;2023-07-13T09:55:30;100310.88;;;20.29;61.70
36234;BME280;43467;50.890;5.982;2023-07-13T09:57:56;100316.66;;;20.46;61.25
36234;BME280;43467;50.890;5.982;2023-07-13T10:00:27;100305.69;;;20.37;60.41
36234;BME280;43467;50.890;5.982;2023-07-13T10:03:20;100312.25;;;20.45;59.61
36234;BME280;43467;50.890;5.982;2023-07-13T10:05:50;100344.66;;;20.64;60.04
36234;BME280;43467;50.890;5.982;2023-07-13T10:08:23;100339.28;;;20.64;59.58
36234;BME280;43467;50.890;5.982;2023-07-13T10:10:57;100340.13;;;20.64;59.79
36234;BME280;43467;50.890;5.982;2023-07-13T10:13:31;100335.53;;;20.76;59.57
36234;BME280;43467;50.890;5.982;2023-07-13T10:15:58;100336.84;;;20.81;59.62
36234;BME280;43467;50.890;5.982;2023-07-13T10:18:25;100351.19;;;20.92;57.70
36234;BME280;43467;50.890;5.982;2023-07-13T10:21:11;100356.94;;;20.98;58.06
36234;BME280;43467;50.890;5.982;2023-07-13T10:23:39;100352.81;;;20.73;57.28
36234;BME280;43467;50.890;5.982;2023-07-13T10:26:08;100335.22;;;20.69;57.15
36234;BME280;43467;50.890;5.982;2023-07-13T10:28:39;100339.88;;;20.67;57.08
36234;BME280;43467;50.890;5.982;2023-07-13T10:31:12;100309.41;;;20.46;56.98
36234;BME280;43467;50.890;5.982;2023-07-13T10:33:39;100346.09;;;20.68;56.91
36234;BME280;43467;50.890;5.982;2023-07-13T10:36:23;100349.78;;;20.67;56.21
36234;BME280;43467;50.890;5.982;2023-07-13T10:38:54;100353.50;;;20.75;57.06
36234;BME280;43467;50.890;5.982;2023-07-13T10:41:24;100355.41;;;20.84;56.86
36234;BME280;43467;50.890;5.982;2023-07-13T10:43:52;100353.72;;;20.83;56.14
36234;BME280;43467;50.890;5.982;2023-07-13T10:46:22;100353.59;;;20.85;55.60
36234;BME280;43467;50.890;5.982;2023-07-13T10:48:54;100342.09;;;20.83;55.10
36234;BME280;43467;50.890;5.982;2023-07-13T10:51:21;100349.53;;;20.91;54.97
36234;BME280;43467;50.890;5.982;2023-07-13T10:54:15;100357.06;;;20.97;55.21
36234;BME280;43467;50.890;5.982;2023-07-13T10:56:42;100371.50;;;21.16;54.84
36234;BME280;43467;50.890;5.982;2023-07-13T11:04:46;100360.28;;;21.42;54.88
36234;BME280;43467;50.890;5.982;2023-07-13T11:07:27;100367.50;;;21.41;54.44
36234;BME280;43467;50.890;5.982;2023-07-13T11:09:55;100367.59;;;21.30;54.65
36234;BME280;43467;50.890;5.982;2023-07-13T11:17:48;100362.94;;;21.11;55.55
36234;BME280;43467;50.890;5.982;2023-07-13T11:22:53;100346.69;;;20.92;53.71
36234;BME280;43467;50.890;5.982;2023-07-13T11:25:33;100363.47;;;21.05;53.84
36234;BME280;43467;50.890;5.982;2023-07-13T11:36:07;100344.56;;;21.16;52.05
36234;BME280;43467;50.890;5.982;2023-07-13T11:38:51;100359.81;;;21.37;52.13
36234;BME280;43467;50.890;5.982;2023-07-13T11:41:30;100342.69;;;21.38;52.50
36234;BME280;43467;50.890;5.982;2023-07-13T11:44:11;100365.53;;;21.43;52.50
36234;BME280;43467;50.890;5.982;2023-07-13T11:46:36;100346.41;;;21.46;52.76
36234;BME280;43467;50.890;5.982;2023-07-13T11:49:06;100352.66;;;21.47;52.44
36234;BME280;43467;50.890;5.982;2023-07-13T11:51:34;100350.81;;;21.57;51.83
36234;BME280;43467;50.890;5.982;2023-07-13T11:54:20;100326.69;;;21.46;52.35
36234;BME280;43467;50.890;5.982;2023-07-13T11:56:48;100348.16;;;21.66;50.54
36234;BME280;43467;50.890;5.982;2023-07-13T11:59:22;100343.63;;;21.76;50.93
36234;BME280;43467;50.890;5.982;2023-07-13T12:01:52;100342.97;;;21.84;51.14
36234;BME280;43467;50.890;5.982;2023-07-13T12:04:25;100346.94;;;21.90;50.79
36234;BME280;43467;50.890;5.982;2023-07-13T12:07:16;100359.25;;;21.83;48.80
36234;BME280;43467;50.890;5.982;2023-07-13T12:09:42;100362.78;;;21.73;49.18
36234;BME280;43467;50.890;5.982;2023-07-13T12:12:14;100360.66;;;21.67;48.55
36234;BME280;43467;50.890;5.982;2023-07-13T12:14:40;100334.25;;;21.61;48.66
36234;BME280;43467;50.890;5.982;2023-07-13T12:17:16;100362.53;;;21.86;48.70
36234;BME280;43467;50.890;5.982;2023-07-13T12:19:43;100328.63;;;21.84;48.45
36234;BME280;43467;50.890;5.982;2023-07-13T12:22:12;100356.94;;;22.08;48.57
36234;BME280;43467;50.890;5.982;2023-07-13T12:24:40;100332.78;;;21.97;47.48
36234;BME280;43467;50.890;5.982;2023-07-13T12:27:19;100357.63;;;22.10;46.92
36234;BME280;43467;50.890;5.982;2023-07-13T12:30:03;100362.03;;;22.02;47.27
36234;BME280;43467;50.890;5.982;2023-07-13T12:32:31;100346.16;;;22.08;47.73
36234;BME280;43467;50.890;5.982;2023-07-13T12:35:17;100342.59;;;22.17;47.72
36234;BME280;43467;50.890;5.982;2023-07-13T12:37:45;100372.56;;;22.24;47.68
36234;BME280;43467;50.890;5.982;2023-07-13T12:42:51;100364.47;;;22.43;48.26
36234;BME280;43467;50.890;5.982;2023-07-13T12:45:26;100360.78;;;22.44;47.66
36234;BME280;43467;50.890;5.982;2023-07-13T12:47:59;100358.94;;;22.45;48.16
36234;BME280;43467;50.890;5.982;2023-07-13T12:50:36;100334.94;;;22.32;46.84
36234;BME280;43467;50.890;5.982;2023-07-13T12:53:05;100357.22;;;22.53;46.92
36234;BME280;43467;50.890;5.982;2023-07-13T12:55:41;100361.19;;;22.59;46.79
36234;BME280;43467;50.890;5.982;2023-07-13T12:58:17;100357.50;;;22.60;46.51
36234;BME280;43467;50.890;5.982;2023-07-13T13:00:48;100347.56;;;22.51;46.26
36234;BME280;43467;50.890;5.982;2023-07-13T13:03:33;100349.28;;;22.52;45.45
36234;BME280;43467;50.890;5.982;2023-07-13T13:06:01;100341.72;;;22.55;45.73
36234;BME280;43467;50.890;5.982;2023-07-13T13:08:33;100345.88;;;22.40;45.16
36234;BME280;43467;50.890;5.982;2023-07-13T13:11:02;100322.00;;;22.36;45.46
36234;BME280;43467;50.890;5.982;2023-07-13T13:13:27;100343.88;;;22.61;45.18
36234;BME280;43467;50.890;5.982;2023-07-13T13:15:54;100357.47;;;22.98;46.33
36234;BME280;43467;50.890;5.982;2023-07-13T13:18:22;100349.19;;;23.09;45.66
36234;BME280;43467;50.890;5.982;2023-07-13T13:20:50;100348.81;;;23.32;46.29
36234;BME280;43467;50.890;5.982;2023-07-13T13:23:18;100357.31;;;23.37;45.09
36234;BME280;43467;50.890;5.982;2023-07-13T13:25:48;100348.56;;;23.25;44.66
36234;BME280;43467;50.890;5.982;2023-07-13T13:28:20;100351.06;;;23.36;44.09
36234;BME280;43467;50.890;5.982;2023-07-13T13:30:48;100350.22;;;23.45;44.17
36234;BME280;43467;50.890;5.982;2023-07-13T13:33:17;100340.50;;;23.52;43.91
36234;BME280;43467;50.890;5.982;2023-07-13T13:35:43;100325.69;;;23.56;43.76